sensor_id;sensor_type;location;lat;lon;timestamp;pressure;altitude;pressure_sealevel;temperature;humidity
25855;BME280;13680;49.936;11.344;2023-06-19T00:01:17;96432.31;;;18.62;56.55
25855;BME280;13680;49.936;11.344;2023-06-19T00:03:42;96440.47;;;18.62;56.59
25855;BME280;13680;49.936;11.344;2023-06-19T00:06:08;96433.13;;;18.63;56.64
25855;BME280;13680;49.936;11.344;2023-06-19T00:08:33;96435.47;;;18.64;56.93
25855;BME280;13680;49.936;11.344;2023-06-19T00:10:59;96443.06;;;18.75;56.60
25855;BME280;13680;49.936;11.344;2023-06-19T00:13:24;96431.38;;;18.74;57.14
25855;BME280;13680;49.936;11.344;2023-06-19T00:15:50;96427.78;;;18.70;57.75
25855;BME280;13680;49.936;11.344;2023-06-19T00:18:15;96431.16;;;18.83;57.39
25855;BME280;13680;49.936;11.344;2023-06-19T00:20:42;96432.31;;;18.82;57.62
25855;BME280;13680;49.936;11.344;2023-06-19T00:23:10;96434.28;;;18.85;57.35
25855;BME280;13680;49.936;11.344;2023-06-19T00:25:40;96427.22;;;18.80;57.88
25855;BME280;13680;49.936;11.344;2023-06-19T00:28:05;96436.25;;;18.85;57.34
25855;BME280;13680;49.936;11.344;2023-06-19T00:30:36;96428.84;;;18.85;57.46
25855;BME280;13680;49.936;11.344;2023-06-19T00:33:02;96439.09;;;18.92;57.75
25855;BME280;13680;49.936;11.344;2023-06-19T00:35:27;96433.06;;;18.83;58.20
25855;BME280;13680;49.936;11.344;2023-06-19T00:37:53;96431.75;;;18.73;58.47
25855;BME280;13680;49.936;11.344;2023-06-19T00:40:26;96429.50;;;18.78;58.55
25855;BME280;13680;49.936;11.344;2023-06-19T00:42:51;96433.31;;;18.93;57.50
25855;BME280;13680;49.936;11.344;2023-06-19T00:45:17;96430.06;;;18.88;57.76
25855;BME280;13680;49.936;11.344;2023-06-19T00:47:42;96434.53;;;18.96;57.62
25855;BME280;13680;49.936;11.344;2023-06-19T00:50:08;96434.88;;;18.94;57.61
25855;BME280;13680;49.936;11.344;2023-06-19T00:52:34;96428.41;;;19.03;57.11
25855;BME280;13680;49.936;11.344;2023-06-19T00:54:59;96425.31;;;19.04;56.77
25855;BME280;13680;49.936;11.344;2023-06-19T00:57:25;96431.59;;;19.08;56.97
25855;BME280;13680;49.936;11.344;2023-06-19T00:59:50;96424.91;;;19.02;57.25
25855;BME280;13680;49.936;11.344;2023-06-19T01:02:19;96426.91;;;19.05;57.43
25855;BME280;13680;49.936;11.344;2023-06-19T01:04:49;96425.38;;;19.08;57.52
25855;BME280;13680;49.936;11.344;2023-06-19T01:07:16;96427.63;;;19.02;57.81
25855;BME280;13680;49.936;11.344;2023-06-19T01:09:48;96422.59;;;19.04;57.65
25855;BME280;13680;49.936;11.344;2023-06-19T01:12:19;96424.59;;;19.07;57.72
25855;BME280;13680;49.936;11.344;2023-06-19T01:14:51;96426.72;;;19.18;57.74
25855;BME280;13680;49.936;11.344;2023-06-19T01:17:19;96425.97;;;19.21;58.00
25855;BME280;13680;49.936;11.344;2023-06-19T01:19:45;96422.19;;;19.25;57.61
25855;BME280;13680;49.936;11.344;2023-06-19T01:22:10;96415.91;;;19.25;57.43
25855;BME280;13680;49.936;11.344;2023-06-19T01:24:36;96417.09;;;19.24;57.84
25855;BME280;13680;49.936;11.344;2023-06-19T01:27:01;96412.88;;;19.30;57.76
25855;BME280;13680;49.936;11.344;2023-06-19T01:29:26;96400.84;;;19.31;57.75
25855;BME280;13680;49.936;11.344;2023-06-19T01:34:49;96410.91;;;19.27;58.26
25855;BME280;13680;49.936;11.344;2023-06-19T01:37:16;96409.75;;;19.28;58.38
25855;BME280;13680;49.936;11.344;2023-06-19T01:39:43;96410.78;;;19.20;58.85
25855;BME280;13680;49.936;11.344;2023-06-19T01:42:10;96408.94;;;19.27;58.48
25855;BME280;13680;49.936;11.344;2023-06-19T01:44:36;96405.50;;;19.30;58.46
25855;BME280;13680;49.936;11.344;2023-06-19T01:47:11;96414.06;;;19.29;59.19
25855;BME280;13680;49.936;11.344;2023-06-19T01:49:37;96412.88;;;19.30;58.93
25855;BME280;13680;49.936;11.344;2023-06-19T01:52:03;96414.41;;;19.27;59.19
25855;BME280;13680;49.936;11.344;2023-06-19T01:54:29;96414.47;;;19.31;59.01
25855;BME280;13680;49.936;11.344;2023-06-19T01:56:54;96415.59;;;19.30;58.78
25855;BME280;13680;49.936;11.344;2023-06-19T01:59:20;96412.84;;;19.26;58.97
25855;BME280;13680;49.936;11.344;2023-06-19T02:01:46;96415.59;;;19.30;58.94
25855;BME280;13680;49.936;11.344;2023-06-19T02:04:11;96403.81;;;19.22;58.89
25855;BME280;13680;49.936;11.344;2023-06-19T02:06:37;96413.09;;;19.18;59.36
25855;BME280;13680;49.936;11.344;2023-06-19T02:09:02;96410.06;;;19.23;58.82
25855;BME280;13680;49.936;11.344;2023-06-19T02:11:27;96407.34;;;19.23;58.72
25855;BME280;13680;49.936;11.344;2023-06-19T02:13:52;96410.84;;;19.23;58.78
25855;BME280;13680;49.936;11.344;2023-06-19T02:16:18;96414.78;;;19.26;59.09
25855;BME280;13680;49.936;11.344;2023-06-19T02:18:43;96412.78;;;19.23;59.47
25855;BME280;13680;49.936;11.344;2023-06-19T02:21:08;96418.63;;;19.25;59.07
25855;BME280;13680;49.936;11.344;2023-06-19T02:23:34;96419.38;;;19.22;59.38
25855;BME280;13680;49.936;11.344;2023-06-19T02:25:59;96417.09;;;19.24;59.60
25855;BME280;13680;49.936;11.344;2023-06-19T02:28:24;96413.94;;;19.22;59.65
25855;BME280;13680;49.936;11.344;2023-06-19T02:30:52;96410.97;;;19.30;59.36
25855;BME280;13680;49.936;11.344;2023-06-19T02:33:17;96411.28;;;19.25;59.38
25855;BME280;13680;49.936;11.344;2023-06-19T02:35:43;96411.22;;;19.22;59.57
25855;BME280;13680;49.936;11.344;2023-06-19T02:38:09;96406.13;;;19.20;59.87
25855;BME280;13680;49.936;11.344;2023-06-19T02:40:35;96407.66;;;19.18;60.04
25855;BME280;13680;49.936;11.344;2023-06-19T02:43:00;96406.91;;;19.21;59.95
25855;BME280;13680;49.936;11.344;2023-06-19T02:45:26;96406.06;;;19.17;60.38
25855;BME280;13680;49.936;11.344;2023-06-19T02:47:51;96406.59;;;19.26;60.13
25855;BME280;13680;49.936;11.344;2023-06-19T02:50:17;96415.44;;;19.19;59.92
25855;BME280;13680;49.936;11.344;2023-06-19T02:52:42;96413.81;;;19.14;60.03
25855;BME280;13680;49.936;11.344;2023-06-19T02:55:08;96405.94;;;19.09;60.19
25855;BME280;13680;49.936;11.344;2023-06-19T02:57:33;96413.34;;;19.09;60.02
25855;BME280;13680;49.936;11.344;2023-06-19T02:59:58;96416.00;;;19.05;59.88
25855;BME280;13680;49.936;11.344;2023-06-19T03:02:24;96423.88;;;19.10;60.00
25855;BME280;13680;49.936;11.344;2023-06-19T03:04:49;96418.88;;;18.93;60.74
25855;BME280;13680;49.936;11.344;2023-06-19T03:07:15;96416.16;;;18.93;60.42
25855;BME280;13680;49.936;11.344;2023-06-19T03:09:41;96417.38;;;18.95;60.92
25855;BME280;13680;49.936;11.344;2023-06-19T03:12:08;96433.00;;;18.99;60.63
25855;BME280;13680;49.936;11.344;2023-06-19T03:14:33;96432.66;;;19.00;59.99
25855;BME280;13680;49.936;11.344;2023-06-19T03:16:59;96426.28;;;18.92;60.29
25855;BME280;13680;49.936;11.344;2023-06-19T03:19:24;96425.47;;;18.92;60.66
25855;BME280;13680;49.936;11.344;2023-06-19T03:21:49;96422.69;;;18.88;60.92
25855;BME280;13680;49.936;11.344;2023-06-19T03:24:14;96426.66;;;18.91;61.17
25855;BME280;13680;49.936;11.344;2023-06-19T03:26:40;96434.38;;;18.89;61.10
25855;BME280;13680;49.936;11.344;2023-06-19T03:29:05;96431.19;;;18.87;60.52
25855;BME280;13680;49.936;11.344;2023-06-19T03:31:30;96433.59;;;18.88;60.79
25855;BME280;13680;49.936;11.344;2023-06-19T03:33:56;96441.97;;;18.79;61.01
25855;BME280;13680;49.936;11.344;2023-06-19T03:36:21;96442.50;;;18.65;61.49
25855;BME280;13680;49.936;11.344;2023-06-19T03:38:48;96439.78;;;18.65;61.55
25855;BME280;13680;49.936;11.344;2023-06-19T03:41:13;96438.13;;;18.61;61.13
25855;BME280;13680;49.936;11.344;2023-06-19T03:43:38;96440.72;;;18.54;61.50
25855;BME280;13680;49.936;11.344;2023-06-19T03:46:04;96439.78;;;18.46;61.44
25855;BME280;13680;49.936;11.344;2023-06-19T03:48:30;96456.91;;;18.46;61.21
25855;BME280;13680;49.936;11.344;2023-06-19T03:50:55;96455.78;;;18.47;60.91
25855;BME280;13680;49.936;11.344;2023-06-19T03:53:21;96452.59;;;18.45;60.65
25855;BME280;13680;49.936;11.344;2023-06-19T03:55:46;96459.56;;;18.43;60.62
25855;BME280;13680;49.936;11.344;2023-06-19T03:58:12;96459.91;;;18.41;61.04
25855;BME280;13680;49.936;11.344;2023-06-19T04:00:37;96466.94;;;18.42;60.47
25855;BME280;13680;49.936;11.344;2023-06-19T04:03:03;96459.47;;;18.39;60.47
25855;BME280;13680;49.936;11.344;2023-06-19T04:05:28;96470.16;;;18.28;60.86
25855;BME280;13680;49.936;11.344;2023-06-19T04:07:53;96472.06;;;18.28;60.71
25855;BME280;13680;49.936;11.344;2023-06-19T04:10:19;96471.59;;;18.22;61.51
25855;BME280;13680;49.936;11.344;2023-06-19T04:12:44;96472.06;;;18.28;61.34
25855;BME280;13680;49.936;11.344;2023-06-19T04:15:10;96472.81;;;18.25;61.26
25855;BME280;13680;49.936;11.344;2023-06-19T04:17:36;96475.97;;;18.27;61.40
25855;BME280;13680;49.936;11.344;2023-06-19T04:20:01;96477.38;;;18.21;62.24
25855;BME280;13680;49.936;11.344;2023-06-19T04:22:32;96477.38;;;18.21;62.32
25855;BME280;13680;49.936;11.344;2023-06-19T04:24:57;96479.91;;;18.29;62.42
25855;BME280;13680;49.936;11.344;2023-06-19T04:27:22;96473.25;;;18.46;61.74
25855;BME280;13680;49.936;11.344;2023-06-19T04:29:47;96471.94;;;18.60;61.61
25855;BME280;13680;49.936;11.344;2023-06-19T04:32:13;96469.00;;;18.69;61.56
25855;BME280;13680;49.936;11.344;2023-06-19T04:34:38;96469.59;;;18.58;62.09
25855;BME280;13680;49.936;11.344;2023-06-19T04:37:05;96474.78;;;18.87;61.53
25855;BME280;13680;49.936;11.344;2023-06-19T04:39:30;96461.41;;;18.97;60.63
25855;BME280;13680;49.936;11.344;2023-06-19T04:41:55;96472.56;;;19.12;59.97
25855;BME280;13680;49.936;11.344;2023-06-19T04:44:21;96464.56;;;19.23;59.38
25855;BME280;13680;49.936;11.344;2023-06-19T04:46:47;96467.00;;;19.28;59.15
25855;BME280;13680;49.936;11.344;2023-06-19T04:49:12;96467.47;;;19.34;58.82
25855;BME280;13680;49.936;11.344;2023-06-19T04:51:38;96470.25;;;19.37;58.70
25855;BME280;13680;49.936;11.344;2023-06-19T04:54:03;96481.16;;;19.37;59.10
25855;BME280;13680;49.936;11.344;2023-06-19T04:56:29;96467.97;;;19.39;59.23
25855;BME280;13680;49.936;11.344;2023-06-19T04:58:55;96481.94;;;19.38;59.72
25855;BME280;13680;49.936;11.344;2023-06-19T05:01:25;96489.34;;;19.37;59.42
25855;BME280;13680;49.936;11.344;2023-06-19T05:03:54;96483.59;;;19.42;59.82
25855;BME280;13680;49.936;11.344;2023-06-19T05:06:23;96485.34;;;19.54;60.42
25855;BME280;13680;49.936;11.344;2023-06-19T05:08:49;96492.25;;;19.71;59.37
25855;BME280;13680;49.936;11.344;2023-06-19T05:11:14;96492.78;;;19.81;59.18
25855;BME280;13680;49.936;11.344;2023-06-19T05:13:39;96474.22;;;19.90;59.01
25855;BME280;13680;49.936;11.344;2023-06-19T05:16:05;96472.16;;;20.10;58.70
25855;BME280;13680;49.936;11.344;2023-06-19T05:18:30;96468.41;;;20.22;58.48
25855;BME280;13680;49.936;11.344;2023-06-19T05:20:56;96475.88;;;20.25;58.37
25855;BME280;13680;49.936;11.344;2023-06-19T05:23:22;96468.84;;;20.24;58.62
25855;BME280;13680;49.936;11.344;2023-06-19T05:25:47;96478.56;;;20.21;58.44
25855;BME280;13680;49.936;11.344;2023-06-19T05:28:12;96470.00;;;20.23;59.01
25855;BME280;13680;49.936;11.344;2023-06-19T05:30:37;96480.81;;;20.16;59.55
25855;BME280;13680;49.936;11.344;2023-06-19T05:33:03;96481.97;;;20.41;58.94
25855;BME280;13680;49.936;11.344;2023-06-19T05:35:28;96484.16;;;20.63;57.83
25855;BME280;13680;49.936;11.344;2023-06-19T05:37:55;96475.53;;;20.91;57.04
25855;BME280;13680;49.936;11.344;2023-06-19T05:40:20;96476.97;;;21.19;55.69
25855;BME280;13680;49.936;11.344;2023-06-19T05:42:46;96479.97;;;21.48;53.44
25855;BME280;13680;49.936;11.344;2023-06-19T05:45:11;96485.66;;;21.69;51.56
25855;BME280;13680;49.936;11.344;2023-06-19T05:47:37;96489.28;;;21.84;50.86
25855;BME280;13680;49.936;11.344;2023-06-19T05:50:02;96488.25;;;22.11;51.58
25855;BME280;13680;49.936;11.344;2023-06-19T05:52:28;96492.44;;;22.53;50.92
25855;BME280;13680;49.936;11.344;2023-06-19T05:54:54;96486.31;;;22.85;50.32
25855;BME280;13680;49.936;11.344;2023-06-19T05:57:19;96498.88;;;23.04;49.30
25855;BME280;13680;49.936;11.344;2023-06-19T05:59:48;96505.59;;;23.28;46.09
25855;BME280;13680;49.936;11.344;2023-06-19T06:02:13;96506.81;;;23.42;46.27
25855;BME280;13680;49.936;11.344;2023-06-19T06:04:38;96520.56;;;23.49;44.46
25855;BME280;13680;49.936;11.344;2023-06-19T06:07:04;96513.84;;;23.32;43.77
25855;BME280;13680;49.936;11.344;2023-06-19T06:09:30;96529.91;;;23.19;45.59
25855;BME280;13680;49.936;11.344;2023-06-19T06:11:55;96517.03;;;23.41;45.54
25855;BME280;13680;49.936;11.344;2023-06-19T06:14:20;96522.47;;;23.27;45.32
25855;BME280;13680;49.936;11.344;2023-06-19T06:16:46;96516.22;;;23.44;45.45
25855;BME280;13680;49.936;11.344;2023-06-19T06:19:11;96518.59;;;23.53;44.97
25855;BME280;13680;49.936;11.344;2023-06-19T06:21:37;96522.13;;;23.75;44.54
25855;BME280;13680;49.936;11.344;2023-06-19T06:24:02;96516.25;;;23.80;44.13
25855;BME280;13680;49.936;11.344;2023-06-19T06:26:28;96518.22;;;23.94;43.44
25855;BME280;13680;49.936;11.344;2023-06-19T06:28:54;96521.75;;;23.88;43.62
25855;BME280;13680;49.936;11.344;2023-06-19T06:31:19;96519.00;;;23.77;43.49
25855;BME280;13680;49.936;11.344;2023-06-19T06:33:45;96524.09;;;23.85;43.17
25855;BME280;13680;49.936;11.344;2023-06-19T06:36:10;96523.72;;;24.01;43.31
25855;BME280;13680;49.936;11.344;2023-06-19T06:38:35;96535.47;;;24.13;44.83
25855;BME280;13680;49.936;11.344;2023-06-19T06:41:01;96535.84;;;24.29;43.57
25855;BME280;13680;49.936;11.344;2023-06-19T06:43:27;96541.72;;;24.39;43.36
25855;BME280;13680;49.936;11.344;2023-06-19T06:45:53;96532.31;;;24.29;42.98
25855;BME280;13680;49.936;11.344;2023-06-19T06:48:18;96532.66;;;24.56;42.93
25855;BME280;13680;49.936;11.344;2023-06-19T06:50:43;96544.41;;;24.60;43.57
25855;BME280;13680;49.936;11.344;2023-06-19T06:53:09;96539.69;;;24.72;42.50
25855;BME280;13680;49.936;11.344;2023-06-19T06:55:34;96547.50;;;24.84;42.61
25855;BME280;13680;49.936;11.344;2023-06-19T06:57:59;96552.56;;;24.93;43.34
25855;BME280;13680;49.936;11.344;2023-06-19T07:00:25;96551.69;;;25.14;42.60
25855;BME280;13680;49.936;11.344;2023-06-19T07:02:50;96553.53;;;25.39;42.09
25855;BME280;13680;49.936;11.344;2023-06-19T07:05:16;96548.75;;;25.50;43.57
25855;BME280;13680;49.936;11.344;2023-06-19T07:07:41;96550.25;;;25.62;43.49
25855;BME280;13680;49.936;11.344;2023-06-19T07:10:08;96552.44;;;25.85;43.34
25855;BME280;13680;49.936;11.344;2023-06-19T07:12:34;96558.56;;;26.04;44.31
25855;BME280;13680;49.936;11.344;2023-06-19T07:14:59;96556.97;;;26.10;44.38
25855;BME280;13680;49.936;11.344;2023-06-19T07:17:24;96564.59;;;26.37;43.04
25855;BME280;13680;49.936;11.344;2023-06-19T07:19:49;96558.41;;;26.25;42.38
25855;BME280;13680;49.936;11.344;2023-06-19T07:22:15;96566.31;;;26.23;41.44
25855;BME280;13680;49.936;11.344;2023-06-19T07:24:41;96566.47;;;26.02;42.02
25855;BME280;13680;49.936;11.344;2023-06-19T07:27:06;96557.22;;;26.26;41.69
25855;BME280;13680;49.936;11.344;2023-06-19T07:29:32;96562.44;;;26.17;41.64
25855;BME280;13680;49.936;11.344;2023-06-19T07:31:58;96559.69;;;26.17;40.71
25855;BME280;13680;49.936;11.344;2023-06-19T07:34:23;96558.81;;;25.78;41.86
25855;BME280;13680;49.936;11.344;2023-06-19T07:36:49;96568.50;;;25.38;42.23
25855;BME280;13680;49.936;11.344;2023-06-19T07:39:14;96566.28;;;25.04;42.42
25855;BME280;13680;49.936;11.344;2023-06-19T07:41:40;96561.72;;;25.57;42.32
25855;BME280;13680;49.936;11.344;2023-06-19T07:44:05;96561.44;;;25.26;42.42
25855;BME280;13680;49.936;11.344;2023-06-19T07:46:30;96557.41;;;25.52;42.06
25855;BME280;13680;49.936;11.344;2023-06-19T07:48:56;96555.84;;;25.44;42.69
25855;BME280;13680;49.936;11.344;2023-06-19T07:51:21;96563.63;;;25.60;42.50
25855;BME280;13680;49.936;11.344;2023-06-19T07:53:46;96569.66;;;25.40;42.69
25855;BME280;13680;49.936;11.344;2023-06-19T07:56:12;96564.25;;;25.15;42.80
25855;BME280;13680;49.936;11.344;2023-06-19T07:58:37;96567.16;;;25.64;42.56
25855;BME280;13680;49.936;11.344;2023-06-19T08:01:02;96562.06;;;25.59;42.46
25855;BME280;13680;49.936;11.344;2023-06-19T08:03:28;96568.22;;;25.81;42.30
25855;BME280;13680;49.936;11.344;2023-06-19T08:05:53;96571.38;;;25.79;42.00
25855;BME280;13680;49.936;11.344;2023-06-19T08:08:18;96580.00;;;25.81;42.81
25855;BME280;13680;49.936;11.344;2023-06-19T08:10:44;96574.53;;;25.74;42.34
25855;BME280;13680;49.936;11.344;2023-06-19T08:13:09;96579.72;;;26.21;41.30
25855;BME280;13680;49.936;11.344;2023-06-19T08:15:36;96584.50;;;26.13;42.00
25855;BME280;13680;49.936;11.344;2023-06-19T08:18:02;96586.94;;;26.01;41.81
25855;BME280;13680;49.936;11.344;2023-06-19T08:20:27;96588.44;;;26.12;41.78
25855;BME280;13680;49.936;11.344;2023-06-19T08:22:53;96580.75;;;25.86;42.52
25855;BME280;13680;49.936;11.344;2023-06-19T08:25:18;96587.81;;;25.94;42.31
25855;BME280;13680;49.936;11.344;2023-06-19T08:27:43;96584.41;;;25.72;42.75
25855;BME280;13680;49.936;11.344;2023-06-19T08:30:10;96587.63;;;26.19;41.77
25855;BME280;13680;49.936;11.344;2023-06-19T08:32:36;96586.09;;;26.11;42.05
25855;BME280;13680;49.936;11.344;2023-06-19T08:35:02;96583.31;;;26.14;41.95
25855;BME280;13680;49.936;11.344;2023-06-19T08:37:28;96580.97;;;26.55;41.39
25855;BME280;13680;49.936;11.344;2023-06-19T08:39:53;96584.16;;;26.53;41.18
25855;BME280;13680;49.936;11.344;2023-06-19T08:42:20;96590.06;;;26.06;42.09
25855;BME280;13680;49.936;11.344;2023-06-19T08:44:46;96591.16;;;26.61;41.11
25855;BME280;13680;49.936;11.344;2023-06-19T08:47:11;96600.34;;;26.89;41.16
25855;BME280;13680;49.936;11.344;2023-06-19T08:49:36;96602.00;;;26.41;41.64
25855;BME280;13680;49.936;11.344;2023-06-19T08:52:03;96593.53;;;26.98;41.10
25855;BME280;13680;49.936;11.344;2023-06-19T08:54:29;96597.72;;;27.09;39.92
25855;BME280;13680;49.936;11.344;2023-06-19T08:56:54;96594.94;;;27.13;40.23
25855;BME280;13680;49.936;11.344;2023-06-19T08:59:20;96599.38;;;27.38;40.82
25855;BME280;13680;49.936;11.344;2023-06-19T09:01:51;96607.94;;;27.47;39.52
25855;BME280;13680;49.936;11.344;2023-06-19T09:04:19;96590.97;;;27.49;40.70
25855;BME280;13680;49.936;11.344;2023-06-19T09:06:52;96600.38;;;27.51;40.25
25855;BME280;13680;49.936;11.344;2023-06-19T09:09:19;96602.09;;;26.69;41.28
25855;BME280;13680;49.936;11.344;2023-06-19T09:12:02;96599.38;;;27.38;40.66
25855;BME280;13680;49.936;11.344;2023-06-19T09:14:38;96601.22;;;27.48;40.95
25855;BME280;13680;49.936;11.344;2023-06-19T09:17:06;96602.88;;;27.42;40.52
25855;BME280;13680;49.936;11.344;2023-06-19T09:19:34;96599.25;;;27.14;40.52
25855;BME280;13680;49.936;11.344;2023-06-19T09:22:03;96602.69;;;26.91;41.49
25855;BME280;13680;49.936;11.344;2023-06-19T09:24:33;96598.28;;;26.97;41.22
25855;BME280;13680;49.936;11.344;2023-06-19T09:27:10;96600.78;;;27.19;41.82
25855;BME280;13680;49.936;11.344;2023-06-19T09:29:40;96593.47;;;27.36;41.72
25855;BME280;13680;49.936;11.344;2023-06-19T09:34:40;96587.78;;;27.50;42.30
25855;BME280;13680;49.936;11.344;2023-06-19T09:37:06;96597.63;;;27.79;41.78
25855;BME280;13680;49.936;11.344;2023-06-19T09:39:34;96598.88;;;27.74;41.24
25855;BME280;13680;49.936;11.344;2023-06-19T09:42:01;96588.31;;;27.92;42.08
25855;BME280;13680;49.936;11.344;2023-06-19T09:44:33;96591.69;;;28.07;40.47
25855;BME280;13680;49.936;11.344;2023-06-19T09:47:04;96588.06;;;28.34;40.63
25855;BME280;13680;49.936;11.344;2023-06-19T09:49:34;96593.22;;;28.56;40.07
25855;BME280;13680;49.936;11.344;2023-06-19T09:51:59;96590.59;;;29.13;38.58
25855;BME280;13680;49.936;11.344;2023-06-19T09:54:25;96591.13;;;29.24;38.53
25855;BME280;13680;49.936;11.344;2023-06-19T09:56:52;96593.53;;;29.79;37.52
25855;BME280;13680;49.936;11.344;2023-06-19T09:59:21;96591.25;;;29.57;37.97
25855;BME280;13680;49.936;11.344;2023-06-19T10:01:47;96588.34;;;29.81;37.37
25855;BME280;13680;49.936;11.344;2023-06-19T10:04:13;96599.03;;;29.99;36.49
25855;BME280;13680;49.936;11.344;2023-06-19T10:06:45;96599.69;;;30.36;36.45
25855;BME280;13680;49.936;11.344;2023-06-19T10:09:13;96596.06;;;30.56;36.26
25855;BME280;13680;49.936;11.344;2023-06-19T10:11:52;96590.94;;;30.37;36.39
25855;BME280;13680;49.936;11.344;2023-06-19T10:14:19;96590.88;;;29.92;36.26
25855;BME280;13680;49.936;11.344;2023-06-19T10:16:45;96588.28;;;30.17;36.74
25855;BME280;13680;49.936;11.344;2023-06-19T10:19:20;96588.28;;;30.50;36.11
25855;BME280;13680;49.936;11.344;2023-06-19T10:21:46;96592.06;;;30.57;35.91
25855;BME280;13680;49.936;11.344;2023-06-19T10:24:16;96592.34;;;31.34;35.07
25855;BME280;13680;49.936;11.344;2023-06-19T10:26:43;96595.41;;;31.78;35.20
25855;BME280;13680;49.936;11.344;2023-06-19T10:29:16;96590.16;;;31.80;35.05
25855;BME280;13680;49.936;11.344;2023-06-19T10:31:42;96589.09;;;31.23;34.66
25855;BME280;13680;49.936;11.344;2023-06-19T10:34:08;96593.06;;;31.09;35.90
25855;BME280;13680;49.936;11.344;2023-06-19T10:36:33;96590.19;;;30.04;36.70
25855;BME280;13680;49.936;11.344;2023-06-19T10:38:59;96594.03;;;30.73;35.75
25855;BME280;13680;49.936;11.344;2023-06-19T10:41:25;96594.28;;;31.21;35.86
25855;BME280;13680;49.936;11.344;2023-06-19T10:44:02;96593.91;;;31.61;34.54
25855;BME280;13680;49.936;11.344;2023-06-19T10:46:33;96590.06;;;31.71;33.68
25855;BME280;13680;49.936;11.344;2023-06-19T10:49:00;96593.94;;;31.87;34.42
25855;BME280;13680;49.936;11.344;2023-06-19T10:51:27;96582.38;;;32.01;33.93
25855;BME280;13680;49.936;11.344;2023-06-19T10:53:54;96575.78;;;32.21;33.57
25855;BME280;13680;49.936;11.344;2023-06-19T10:56:21;96587.75;;;31.14;34.38
25855;BME280;13680;49.936;11.344;2023-06-19T10:58:46;96582.47;;;31.97;33.72
25855;BME280;13680;49.936;11.344;2023-06-19T11:01:12;96578.13;;;32.09;33.47
25855;BME280;13680;49.936;11.344;2023-06-19T11:03:37;96580.25;;;31.92;34.59
25855;BME280;13680;49.936;11.344;2023-06-19T11:06:03;96569.56;;;31.52;36.86
25855;BME280;13680;49.936;11.344;2023-06-19T11:08:28;96569.09;;;31.54;35.64
25855;BME280;13680;49.936;11.344;2023-06-19T11:10:55;96565.97;;;32.29;35.19
25855;BME280;13680;49.936;11.344;2023-06-19T11:13:20;96561.59;;;32.98;34.71
25855;BME280;13680;49.936;11.344;2023-06-19T11:15:47;96559.63;;;33.30;33.73
25855;BME280;13680;49.936;11.344;2023-06-19T11:18:15;96558.56;;;33.68;33.02
25855;BME280;13680;49.936;11.344;2023-06-19T11:23:15;96577.59;;;32.50;34.03
25855;BME280;13680;49.936;11.344;2023-06-19T11:25:41;96578.25;;;31.80;36.24
25855;BME280;13680;49.936;11.344;2023-06-19T11:28:14;96576.22;;;31.55;36.27
25855;BME280;13680;49.936;11.344;2023-06-19T11:30:40;96578.69;;;32.04;35.69
25855;BME280;13680;49.936;11.344;2023-06-19T11:33:20;96578.41;;;32.37;36.18
25855;BME280;13680;49.936;11.344;2023-06-19T11:35:51;96571.78;;;32.22;35.04
25855;BME280;13680;49.936;11.344;2023-06-19T11:38:20;96571.84;;;32.31;34.87
25855;BME280;13680;49.936;11.344;2023-06-19T11:40:47;96570.41;;;32.61;34.19
25855;BME280;13680;49.936;11.344;2023-06-19T11:43:23;96561.34;;;33.27;33.92
25855;BME280;13680;49.936;11.344;2023-06-19T11:45:49;96566.97;;;32.22;34.21
25855;BME280;13680;49.936;11.344;2023-06-19T11:48:21;96571.06;;;32.43;33.76
25855;BME280;13680;49.936;11.344;2023-06-19T11:50:47;96560.78;;;33.42;32.82
25855;BME280;13680;49.936;11.344;2023-06-19T11:53:13;96559.88;;;33.23;32.87
25855;BME280;13680;49.936;11.344;2023-06-19T11:55:38;96553.38;;;33.48;32.85
25855;BME280;13680;49.936;11.344;2023-06-19T11:58:03;96565.22;;;33.30;33.69
25855;BME280;13680;49.936;11.344;2023-06-19T12:00:29;96558.53;;;34.09;32.80
25855;BME280;13680;49.936;11.344;2023-06-19T12:02:54;96556.84;;;34.21;32.53
25855;BME280;13680;49.936;11.344;2023-06-19T12:05:22;96551.94;;;34.44;32.93
25855;BME280;13680;49.936;11.344;2023-06-19T12:07:47;96559.84;;;34.91;33.04
25855;BME280;13680;49.936;11.344;2023-06-19T12:10:12;96550.69;;;34.45;30.62
25855;BME280;13680;49.936;11.344;2023-06-19T12:12:38;96543.22;;;34.79;30.22
25855;BME280;13680;49.936;11.344;2023-06-19T12:15:05;96550.69;;;34.63;30.01
25855;BME280;13680;49.936;11.344;2023-06-19T12:17:30;96540.59;;;34.47;30.87
25855;BME280;13680;49.936;11.344;2023-06-19T12:19:56;96535.41;;;33.90;31.92
25855;BME280;13680;49.936;11.344;2023-06-19T12:22:21;96534.53;;;34.21;31.65
25855;BME280;13680;49.936;11.344;2023-06-19T12:24:47;96537.19;;;33.74;31.95
25855;BME280;13680;49.936;11.344;2023-06-19T12:27:12;96538.09;;;33.31;32.80
25855;BME280;13680;49.936;11.344;2023-06-19T12:29:37;96537.97;;;33.12;33.52
25855;BME280;13680;49.936;11.344;2023-06-19T12:32:03;96536.91;;;32.87;33.93
25855;BME280;13680;49.936;11.344;2023-06-19T12:34:28;96527.31;;;33.42;33.48
25855;BME280;13680;49.936;11.344;2023-06-19T12:36:54;96527.06;;;34.08;33.50
25855;BME280;13680;49.936;11.344;2023-06-19T12:39:20;96520.31;;;34.37;32.22
25855;BME280;13680;49.936;11.344;2023-06-19T12:41:45;96520.16;;;35.30;32.05
25855;BME280;13680;49.936;11.344;2023-06-19T12:44:11;96513.63;;;35.33;30.50
25855;BME280;13680;49.936;11.344;2023-06-19T12:46:36;96515.75;;;35.81;30.21
25855;BME280;13680;49.936;11.344;2023-06-19T12:49:01;96527.00;;;36.06;30.23
25855;BME280;13680;49.936;11.344;2023-06-19T12:51:27;96521.50;;;34.27;31.22
25855;BME280;13680;49.936;11.344;2023-06-19T12:53:52;96523.88;;;35.36;29.97